Time;durP1;ratioP1;P1;durP2;ratioP2;P2;SDS_P1;SDS_P2;PMS_P1;PMS_P2;Temp;Humidity;BMP_temperature;BMP_pressure;BME280_temperature;BME280_humidity;BME280_pressure;Samples;Min_cycle;Max_cycle;Signal;HPM_P1;HPM_P2
2023/01/03 00:00:11;;;;;;;;;;;18.90;71.10;;;;;;5056908;28;43126;-77
2023/01/03 00:02:37;;;;;;;;;;;19.00;71.10;;;;;;5055244;28;42937;-76
2023/01/03 00:05:03;;;;;;;;;;;19.00;71.20;;;;;;5064316;28;42905;-74
2023/01/03 00:07:34;;;;;;;;;;;18.90;71.20;;;;;;5042182;28;43027;-85
2023/01/03 00:10:07;;;;;;;;;;;18.90;71.20;;;;;;5058899;28;43941;-80
2023/01/03 00:12:33;;;;;;;;;;;19.00;71.30;;;;;;5062053;28;43690;-78
2023/01/03 00:14:59;;;;;;;;;;;18.90;71.20;;;;;;5045166;28;42948;-76
2023/01/03 00:17:25;;;;;;;;;;;19.00;71.30;;;;;;5044237;28;43074;-75
2023/01/03 00:19:50;;;;;;;;;;;19.00;71.60;;;;;;5044120;28;43622;-77
2023/01/03 00:22:16;;;;;;;;;;;19.00;71.70;;;;;;5044275;28;42956;-75
2023/01/03 00:24:46;;;;;;;;;;;19.10;71.90;;;;;;5034797;28;43642;-83
2023/01/03 00:27:12;;;;;;;;;;;19.10;72.30;;;;;;5062739;28;43237;-80
2023/01/03 00:29:38;;;;;;;;;;;19.00;72.20;;;;;;5057552;28;43354;-79
2023/01/03 00:32:03;;;;;;;;;;;19.10;72.50;;;;;;5043147;28;42893;-77
2023/01/03 00:34:29;;;;;;;;;;;19.10;72.70;;;;;;5043225;28;43428;-79
2023/01/03 00:36:55;;;;;;;;;;;19.10;72.60;;;;;;5044157;28;42820;-74
2023/01/03 00:39:20;;;;;;;;;;;19.10;72.50;;;;;;5043217;28;42936;-79
2023/01/03 00:41:46;;;;;;;;;;;19.10;72.40;;;;;;5043097;28;43140;-78
2023/01/03 00:44:12;;;;;;;;;;;19.10;72.40;;;;;;5043873;28;42936;-73
2023/01/03 00:46:37;;;;;;;;;;;19.00;72.40;;;;;;5025428;28;42913;-78
2023/01/03 00:49:03;;;;;;;;;;;19.10;72.20;;;;;;5046157;28;43542;-75
2023/01/03 00:51:31;;;;;;;;;;;19.00;72.10;;;;;;5044761;28;43003;-75
2023/01/03 00:53:57;;;;;;;;;;;19.10;72.20;;;;;;5044554;28;44003;-76
2023/01/03 00:56:25;;;;;;;;;;;19.10;72.10;;;;;;5046671;28;43100;-77
2023/01/03 00:58:51;;;;;;;;;;;19.10;72.10;;;;;;5066788;28;43613;-76
2023/01/03 01:01:18;;;;;;;;;;;19.10;72.20;;;;;;5052536;28;43244;-76
2023/01/03 01:03:45;;;;;;;;;;;19.20;71.90;;;;;;5055631;28;42935;-76
2023/01/03 01:06:15;;;;;;;;;;;19.30;71.70;;;;;;5041964;28;43006;-73
2023/01/03 01:08:41;;;;;;;;;;;19.30;71.40;;;;;;5054501;28;43027;-78
2023/01/03 01:11:07;;;;;;;;;;;19.20;71.50;;;;;;5057929;28;42971;-77
2023/01/03 01:13:33;;;;;;;;;;;19.20;71.60;;;;;;5048441;28;42979;-75
2023/01/03 01:15:59;;;;;;;;;;;19.20;71.80;;;;;;5055846;28;42868;-74
2023/01/03 01:18:25;;;;;;;;;;;19.20;72.30;;;;;;5055937;28;43784;-77
2023/01/03 01:20:51;;;;;;;;;;;19.20;71.50;;;;;;5057610;28;42994;-75
2023/01/03 01:23:17;;;;;;;;;;;19.30;71.40;;;;;;5053134;28;43495;-77
2023/01/03 01:25:42;;;;;;;;;;;19.30;71.40;;;;;;5058684;28;43138;-75
2023/01/03 01:28:08;;;;;;;;;;;19.20;71.40;;;;;;5055730;28;43058;-77
2023/01/03 01:30:35;;;;;;;;;;;19.30;71.30;;;;;;5048576;28;43365;-77
2023/01/03 01:33:01;;;;;;;;;;;19.20;71.60;;;;;;5056682;28;43494;-75
2023/01/03 01:35:26;;;;;;;;;;;19.30;71.40;;;;;;5057111;28;43046;-75
2023/01/03 01:37:51;;;;;;;;;;;19.30;71.30;;;;;;5057533;28;42899;-77
2023/01/03 01:40:17;;;;;;;;;;;19.30;71.20;;;;;;5054770;28;43014;-77
2023/01/03 01:45:27;;;;;;;;;;;19.20;71.60;;;;;;5043443;28;43328;-76
2023/01/03 01:48:04;;;;;;;;;;;19.30;71.40;;;;;;5043194;28;42974;-78
2023/01/03 01:50:38;;;;;;;;;;;19.30;71.10;;;;;;5043152;28;42946;-75
2023/01/03 01:53:06;;;;;;;;;;;19.20;71.50;;;;;;5025466;28;44675;-75
2023/01/03 01:55:35;;;;;;;;;;;19.20;71.70;;;;;;5043354;28;43222;-76
2023/01/03 01:58:01;;;;;;;;;;;19.20;71.80;;;;;;5041807;28;44150;-76
2023/01/03 02:00:27;;;;;;;;;;;19.20;71.60;;;;;;5024541;28;43115;-75
2023/01/03 02:02:52;;;;;;;;;;;19.20;71.50;;;;;;5043184;28;43384;-76
2023/01/03 02:05:19;;;;;;;;;;;19.30;71.60;;;;;;5043290;28;42970;-76
2023/01/03 02:07:47;;;;;;;;;;;19.20;71.80;;;;;;5043093;28;42942;-77
2023/01/03 02:10:12;;;;;;;;;;;19.30;71.70;;;;;;5024682;28;42889;-74
2023/01/03 02:15:33;;;;;;;;;;;19.20;71.70;;;;;;5053362;28;43071;-77
2023/01/03 02:18:17;;;;;;;;;;;19.30;72.00;;;;;;5046414;28;43624;-78
2023/01/03 02:21:01;;;;;;;;;;;19.20;72.10;;;;;;5043881;28;43018;-74
2023/01/03 02:23:36;;;;;;;;;;;19.20;72.20;;;;;;5042857;28;43720;-75
2023/01/03 02:26:20;;;;;;;;;;;19.30;71.80;;;;;;5030380;28;43079;-78
2023/01/03 02:28:49;;;;;;;;;;;19.20;72.00;;;;;;5047971;28;43838;-78
2023/01/03 02:31:14;;;;;;;;;;;19.30;72.00;;;;;;5046463;28;42883;-75
2023/01/03 02:33:40;;;;;;;;;;;19.30;71.60;;;;;;5043373;28;43784;-76
2023/01/03 02:36:29;;;;;;;;;;;19.20;72.00;;;;;;5033510;28;42936;-77
2023/01/03 02:39:10;;;;;;;;;;;19.30;71.80;;;;;;5047632;28;44067;-77
2023/01/03 02:41:46;;;;;;;;;;;19.30;72.00;;;;;;5046734;28;42961;-73
2023/01/03 02:44:31;;;;;;;;;;;19.30;71.80;;;;;;5033388;28;43127;-77
2023/01/03 02:47:02;;;;;;;;;;;19.30;71.80;;;;;;5045423;28;42960;-78
2023/01/03 02:49:30;;;;;;;;;;;19.30;72.00;;;;;;5046577;28;43438;-77
2023/01/03 02:52:00;;;;;;;;;;;19.30;71.80;;;;;;5033874;28;42873;-72
2023/01/03 02:54:29;;;;;;;;;;;19.40;71.50;;;;;;5027719;28;42930;-78
2023/01/03 02:56:59;;;;;;;;;;;19.30;72.00;;;;;;5046130;28;42920;-78
2023/01/03 02:59:34;;;;;;;;;;;19.30;72.00;;;;;;5046338;28;44115;-73
2023/01/03 03:02:00;;;;;;;;;;;19.30;71.90;;;;;;5045693;28;42845;-79
2023/01/03 03:04:26;;;;;;;;;;;19.30;72.10;;;;;;5045998;28;43490;-78
2023/01/03 03:07:05;;;;;;;;;;;19.30;72.10;;;;;;5031009;28;43144;-77
2023/01/03 03:09:31;;;;;;;;;;;19.20;72.40;;;;;;5032597;28;43193;-79
2023/01/03 03:14:46;;;;;;;;;;;19.20;72.50;;;;;;5053461;28;43073;-78
2023/01/03 03:17:18;;;;;;;;;;;19.20;72.70;;;;;;5046538;28;43010;-76
2023/01/03 03:25:26;;;;;;;;;;;19.10;72.90;;;;;;5040021;28;42997;-79
2023/01/03 03:30:40;;;;;;;;;;;19.10;73.10;;;;;;5050737;28;43273;-78
2023/01/03 03:33:06;;;;;;;;;;;19.20;73.00;;;;;;5036925;28;42991;-79
2023/01/03 03:35:44;;;;;;;;;;;19.10;72.90;;;;;;5043169;28;43042;-78
2023/01/03 03:38:12;;;;;;;;;;;19.10;73.20;;;;;;5038399;28;42984;-78
2023/01/03 03:46:22;;;;;;;;;;;19.10;73.40;;;;;;5045401;28;42873;-79
2023/01/03 03:51:38;;;;;;;;;;;19.10;73.30;;;;;;5045160;28;42884;-78
2023/01/03 03:54:10;;;;;;;;;;;19.10;73.50;;;;;;5044198;28;42861;-79
2023/01/03 03:56:36;;;;;;;;;;;19.10;73.40;;;;;;5045024;28;43494;-79
2023/01/03 03:59:04;;;;;;;;;;;19.10;73.50;;;;;;5044434;28;43042;-77
2023/01/03 04:01:30;;;;;;;;;;;19.00;73.70;;;;;;5044956;28;42818;-79
2023/01/03 04:03:58;;;;;;;;;;;19.10;73.70;;;;;;5044806;28;42985;-80
2023/01/03 04:06:29;;;;;;;;;;;19.10;73.80;;;;;;5042815;28;42947;-79
2023/01/03 04:08:55;;;;;;;;;;;19.10;73.90;;;;;;5042696;28;43137;-79
2023/01/03 04:11:21;;;;;;;;;;;19.10;73.80;;;;;;5042703;28;43442;-76
2023/01/03 04:13:46;;;;;;;;;;;19.10;74.00;;;;;;5042486;28;42952;-75
2023/01/03 04:16:12;;;;;;;;;;;19.10;74.10;;;;;;5043233;28;42935;-79
2023/01/03 04:18:37;;;;;;;;;;;19.10;74.30;;;;;;5044563;28;43038;-78
2023/01/03 04:21:03;;;;;;;;;;;19.10;74.60;;;;;;5044093;28;42851;-79
2023/01/03 04:23:28;;;;;;;;;;;19.10;74.80;;;;;;5044026;28;42960;-79
2023/01/03 04:25:54;;;;;;;;;;;19.10;74.80;;;;;;5043994;28;44004;-80
2023/01/03 04:28:19;;;;;;;;;;;19.20;74.90;;;;;;5044426;28;43572;-80
2023/01/03 04:30:45;;;;;;;;;;;19.10;74.80;;;;;;5043657;28;43602;-77
2023/01/03 04:33:11;;;;;;;;;;;19.20;74.80;;;;;;5044603;28;42935;-80
2023/01/03 04:35:36;;;;;;;;;;;19.20;74.50;;;;;;5043577;28;43568;-79
2023/01/03 04:38:02;;;;;;;;;;;19.20;74.70;;;;;;5043410;28;43239;-79
2023/01/03 04:40:28;;;;;;;;;;;19.20;74.60;;;;;;5043622;28;44098;-79
2023/01/03 04:45:38;;;;;;;;;;;19.20;74.60;;;;;;5043720;28;43210;-79
2023/01/03 04:48:03;;;;;;;;;;;19.10;75.30;;;;;;5042549;28;42992;-78
2023/01/03 04:50:29;;;;;;;;;;;19.10;75.10;;;;;;5043101;28;43022;-78
2023/01/03 04:52:55;;;;;;;;;;;19.10;75.10;;;;;;5043726;28;43038;-79
2023/01/03 04:55:20;;;;;;;;;;;19.10;75.00;;;;;;5044017;28;43529;-79
2023/01/03 04:57:46;;;;;;;;;;;19.10;75.10;;;;;;5047770;28;43036;-79
2023/01/03 05:00:11;;;;;;;;;;;19.10;75.00;;;;;;5044732;28;42911;-80
2023/01/03 05:02:37;;;;;;;;;;;19.10;75.10;;;;;;5044015;28;42955;-79
2023/01/03 05:05:02;;;;;;;;;;;19.00;75.20;;;;;;5044440;28;43449;-79
2023/01/03 05:07:28;;;;;;;;;;;19.00;75.50;;;;;;5043644;28;42985;-79
2023/01/03 05:09:54;;;;;;;;;;;19.00;75.30;;;;;;5043315;28;44016;-79
2023/01/03 05:12:19;;;;;;;;;;;19.10;75.20;;;;;;5041568;28;42889;-79
2023/01/03 05:14:45;;;;;;;;;;;19.10;75.00;;;;;;5043672;28;43411;-79
2023/01/03 05:17:10;;;;;;;;;;;19.10;75.70;;;;;;5041498;28;43276;-79
2023/01/03 05:25:48;;;;;;;;;;;19.00;75.00;;;;;;5040211;28;43111;-78
2023/01/03 05:27:51;;;;;;;;;;;19.00;75.10;;;;;;5035579;28;42991;-78
2023/01/03 05:30:16;;;;;;;;;;;19.10;75.20;;;;;;5041650;28;43013;-78
2023/01/03 05:32:42;;;;;;;;;;;19.10;75.20;;;;;;5032059;28;42958;-79
2023/01/03 05:35:07;;;;;;;;;;;19.10;75.20;;;;;;5040052;28;42937;-79
2023/01/03 05:37:33;;;;;;;;;;;19.00;75.30;;;;;;5042647;28;43119;-80
2023/01/03 05:39:58;;;;;;;;;;;19.00;75.30;;;;;;5043527;28;43573;-79
2023/01/03 05:42:24;;;;;;;;;;;19.10;75.00;;;;;;5036327;28;42979;-78
2023/01/03 05:44:49;;;;;;;;;;;19.20;74.90;;;;;;5037610;28;42940;-80
2023/01/03 05:47:15;;;;;;;;;;;19.10;74.90;;;;;;5042171;28;43040;-78
2023/01/03 05:49:40;;;;;;;;;;;19.10;75.20;;;;;;5043405;28;44105;-80
2023/01/03 05:52:06;;;;;;;;;;;19.10;75.40;;;;;;5036358;28;43088;-80
2023/01/03 05:54:31;;;;;;;;;;;19.00;75.50;;;;;;5038878;28;43394;-79
2023/01/03 05:56:57;;;;;;;;;;;19.00;76.10;;;;;;5035766;28;42991;-80
2023/01/03 05:59:22;;;;;;;;;;;19.10;75.40;;;;;;5048257;28;43070;-77
2023/01/03 06:01:48;;;;;;;;;;;19.00;75.50;;;;;;5033075;28;43033;-76
2023/01/03 06:04:14;;;;;;;;;;;19.00;75.50;;;;;;5040811;28;43691;-78
2023/01/03 06:06:39;;;;;;;;;;;19.00;75.60;;;;;;5039695;28;42912;-80
2023/01/03 06:09:05;;;;;;;;;;;19.00;75.60;;;;;;5033351;28;42882;-78
2023/01/03 06:11:30;;;;;;;;;;;19.10;75.40;;;;;;5041360;28;42995;-78
2023/01/03 06:13:56;;;;;;;;;;;19.00;75.50;;;;;;5046081;28;43120;-77
2023/01/03 06:19:06;;;;;;;;;;;19.20;75.60;;;;;;5045756;28;43054;-79
2023/01/03 06:21:32;;;;;;;;;;;19.00;75.50;;;;;;5044464;28;42948;-77
2023/01/03 06:23:58;;;;;;;;;;;19.10;75.60;;;;;;5035525;28;43514;-78
2023/01/03 06:26:24;;;;;;;;;;;19.00;75.60;;;;;;5045279;28;43006;-79
2023/01/03 06:28:50;;;;;;;;;;;19.00;75.60;;;;;;5045938;28;43488;-77
2023/01/03 06:31:15;;;;;;;;;;;19.00;75.70;;;;;;5041322;28;42990;-78
2023/01/03 06:33:41;;;;;;;;;;;19.10;75.70;;;;;;5051745;28;43030;-79
2023/01/03 06:36:11;;;;;;;;;;;19.10;75.70;;;;;;5052059;28;43069;-78
2023/01/03 06:38:36;;;;;;;;;;;19.10;75.60;;;;;;5049289;28;43984;-78
2023/01/03 06:41:02;;;;;;;;;;;19.10;75.60;;;;;;5045746;28;42960;-75
2023/01/03 06:43:28;;;;;;;;;;;19.20;75.50;;;;;;5033105;28;44062;-78
2023/01/03 06:54:25;;;;;;;;;;;19.10;76.10;;;;;;5056985;28;42862;-77
2023/01/03 06:56:51;;;;;;;;;;;19.10;76.00;;;;;;5046361;28;42916;-77
2023/01/03 06:59:17;;;;;;;;;;;19.10;75.90;;;;;;5046532;28;44046;-78
2023/01/03 07:01:46;;;;;;;;;;;19.10;75.80;;;;;;5056445;28;43006;-78
2023/01/03 07:04:12;;;;;;;;;;;19.10;75.90;;;;;;5058394;28;42973;-75
2023/01/03 07:06:38;;;;;;;;;;;19.10;76.00;;;;;;5057317;28;43036;-76
2023/01/03 07:09:03;;;;;;;;;;;19.10;75.90;;;;;;5059652;28;43261;-78
2023/01/03 07:11:29;;;;;;;;;;;19.10;76.00;;;;;;5054897;28;43087;-76
2023/01/03 07:13:58;;;;;;;;;;;19.00;75.90;;;;;;5057972;28;42955;-77
2023/01/03 07:16:27;;;;;;;;;;;19.00;75.90;;;;;;5062298;28;43262;-78
2023/01/03 07:18:53;;;;;;;;;;;19.00;75.90;;;;;;5044116;28;43478;-77
2023/01/03 07:21:19;;;;;;;;;;;19.00;75.90;;;;;;5045458;28;42891;-77
2023/01/03 07:23:44;;;;;;;;;;;19.00;76.00;;;;;;5045115;28;43330;-78
2023/01/03 07:26:10;;;;;;;;;;;19.00;76.10;;;;;;5045433;28;42996;-77
2023/01/03 07:28:35;;;;;;;;;;;19.00;76.00;;;;;;5044476;28;43421;-76
2023/01/03 07:31:02;;;;;;;;;;;19.00;76.20;;;;;;5027555;28;43207;-78
2023/01/03 07:33:28;;;;;;;;;;;19.00;75.90;;;;;;5045353;28;44865;-76
2023/01/03 07:36:00;;;;;;;;;;;19.00;75.90;;;;;;5045795;28;42985;-78
2023/01/03 07:38:26;;;;;;;;;;;19.00;75.90;;;;;;5045816;28;42898;-77
2023/01/03 07:40:54;;;;;;;;;;;19.00;76.10;;;;;;5046502;28;42958;-75
2023/01/03 07:43:38;;;;;;;;;;;19.10;76.10;;;;;;5049894;28;42979;-76
2023/01/03 07:46:07;;;;;;;;;;;19.10;75.70;;;;;;5043069;28;43076;-77
2023/01/03 07:48:33;;;;;;;;;;;19.10;75.80;;;;;;5052940;28;43644;-78
2023/01/03 07:50:59;;;;;;;;;;;19.10;75.90;;;;;;5050621;28;43145;-76
2023/01/03 07:53:24;;;;;;;;;;;19.00;75.90;;;;;;5050859;28;42941;-77
2023/01/03 07:55:50;;;;;;;;;;;19.00;75.90;;;;;;5057676;28;42943;-77
2023/01/03 07:58:15;;;;;;;;;;;19.00;75.70;;;;;;5056537;28;42865;-76
2023/01/03 08:00:41;;;;;;;;;;;19.10;75.60;;;;;;5060021;28;42960;-78
2023/01/03 08:03:07;;;;;;;;;;;19.10;75.40;;;;;;5053784;28;43004;-76
2023/01/03 08:05:34;;;;;;;;;;;19.00;75.60;;;;;;5057133;28;43052;-77
2023/01/03 08:08:00;;;;;;;;;;;19.00;75.50;;;;;;5057057;28;43083;-77
2023/01/03 08:13:19;;;;;;;;;;;19.00;75.60;;;;;;5058047;28;43032;-78
2023/01/03 08:15:51;;;;;;;;;;;19.00;75.60;;;;;;5060777;28;42977;-78
2023/01/03 08:18:21;;;;;;;;;;;19.00;75.60;;;;;;5061134;28;42944;-77
2023/01/03 08:20:47;;;;;;;;;;;19.00;75.50;;;;;;5053285;28;42926;-77
2023/01/03 08:23:13;;;;;;;;;;;19.00;75.50;;;;;;5057554;28;43817;-78
2023/01/03 08:25:38;;;;;;;;;;;19.00;75.70;;;;;;5057799;28;43046;-75
2023/01/03 08:28:05;;;;;;;;;;;19.10;75.80;;;;;;5058754;28;43072;-77
2023/01/03 08:30:30;;;;;;;;;;;19.00;75.60;;;;;;5059596;28;43340;-77
2023/01/03 08:33:00;;;;;;;;;;;19.10;75.80;;;;;;5060782;28;43087;-78
2023/01/03 08:35:27;;;;;;;;;;;19.10;76.30;;;;;;5058888;28;43264;-78
2023/01/03 08:37:53;;;;;;;;;;;19.10;76.60;;;;;;5048727;28;43056;-79
2023/01/03 08:40:18;;;;;;;;;;;19.20;72.10;;;;;;5049796;28;43275;-78
2023/01/03 08:42:45;;;;;;;;;;;19.20;75.10;;;;;;5056771;28;43076;-76
2023/01/03 08:45:12;;;;;;;;;;;19.20;75.90;;;;;;5059541;28;43040;-78
2023/01/03 08:47:39;;;;;;;;;;;19.20;75.80;;;;;;5050526;28;43280;-78
2023/01/03 08:50:04;;;;;;;;;;;19.20;72.80;;;;;;5049450;28;43016;-84
2023/01/03 08:52:30;;;;;;;;;;;19.10;67.40;;;;;;5061810;28;43459;-79
2023/01/03 08:54:55;;;;;;;;;;;19.10;66.30;;;;;;5061894;28;43116;-81
2023/01/03 08:57:21;;;;;;;;;;;19.00;64.60;;;;;;5054504;28;42947;-81
2023/01/03 08:59:46;;;;;;;;;;;19.00;64.20;;;;;;5051510;28;43967;-79
2023/01/03 09:02:12;;;;;;;;;;;18.90;63.70;;;;;;5044511;28;43245;-79
2023/01/03 09:04:37;;;;;;;;;;;18.90;63.20;;;;;;5047864;28;43102;-77
2023/01/03 09:07:03;;;;;;;;;;;18.80;63.60;;;;;;5055460;28;43821;-80
2023/01/03 09:09:29;;;;;;;;;;;18.80;64.10;;;;;;5060001;28;43790;-76
2023/01/03 09:11:55;;;;;;;;;;;18.90;64.70;;;;;;5058280;28;43006;-74
2023/01/03 09:14:20;;;;;;;;;;;18.90;65.20;;;;;;5055862;28;43121;-74
2023/01/03 09:16:46;;;;;;;;;;;18.90;65.80;;;;;;5057008;28;43057;-76
2023/01/03 09:19:11;;;;;;;;;;;19.00;65.80;;;;;;5059116;28;43115;-73
2023/01/03 09:21:37;;;;;;;;;;;19.00;64.00;;;;;;5051935;28;43531;-78
2023/01/03 09:24:03;;;;;;;;;;;18.90;61.50;;;;;;5055517;28;42896;-73
2023/01/03 09:26:29;;;;;;;;;;;18.80;60.30;;;;;;5055955;28;43107;-77
2023/01/03 09:28:55;;;;;;;;;;;18.70;59.50;;;;;;5046936;28;43009;-78
2023/01/03 09:31:20;;;;;;;;;;;18.70;59.40;;;;;;5053376;28;42974;-76
2023/01/03 09:33:46;;;;;;;;;;;18.60;59.90;;;;;;5049258;28;42970;-74
2023/01/03 09:36:11;;;;;;;;;;;18.60;60.00;;;;;;5040759;28;43505;-74
2023/01/03 09:38:37;;;;;;;;;;;18.50;60.00;;;;;;5046188;28;43348;-76
2023/01/03 09:41:05;;;;;;;;;;;18.60;62.10;;;;;;5053162;28;43527;-73
2023/01/03 09:43:35;;;;;;;;;;;18.60;63.30;;;;;;5052676;28;43029;-73
2023/01/03 09:46:01;;;;;;;;;;;18.60;64.00;;;;;;5056685;28;43405;-78
2023/01/03 09:48:37;;;;;;;;;;;18.70;64.60;;;;;;5050934;28;43225;-74
2023/01/03 10:03:41;;;;;;;;;;;18.80;64.70;;;;;;5019414;28;43505;-74
2023/01/03 10:05:31;;;;;;;;;;;18.60;57.90;;;;;;5045290;28;43310;-75
2023/01/03 10:08:02;;;;;;;;;;;18.50;57.20;;;;;;5047462;28;43601;-72
2023/01/03 10:10:28;;;;;;;;;;;18.30;57.40;;;;;;5048934;28;42955;-82
2023/01/03 10:12:55;;;;;;;;;;;18.30;57.50;;;;;;5049580;28;43395;-86
2023/01/03 10:15:34;;;;;;;;;;;18.10;57.30;;;;;;5054809;28;43066;-85
2023/01/03 10:18:16;;;;;;;;;;;18.10;57.30;;;;;;5040650;28;43759;-78
2023/01/03 10:20:50;;;;;;;;;;;18.10;57.30;;;;;;5059308;28;42966;-78
2023/01/03 10:23:17;;;;;;;;;;;18.00;57.80;;;;;;5061933;28;43916;-78
2023/01/03 10:25:43;;;;;;;;;;;17.90;57.40;;;;;;5061656;28;42941;-83
2023/01/03 10:28:12;;;;;;;;;;;17.90;57.60;;;;;;5065552;28;42933;-78
2023/01/03 10:30:37;;;;;;;;;;;17.80;57.70;;;;;;5058159;28;43035;-76
2023/01/03 10:33:14;;;;;;;;;;;17.80;57.40;;;;;;5053960;28;43700;-76
2023/01/03 10:35:39;;;;;;;;;;;17.70;57.80;;;;;;5053076;28;42964;-79
2023/01/03 10:38:05;;;;;;;;;;;17.70;58.00;;;;;;5043735;28;43050;-75
2023/01/03 10:40:35;;;;;;;;;;;17.80;57.70;;;;;;5051816;28;42983;-75
2023/01/03 10:43:15;;;;;;;;;;;17.80;57.90;;;;;;5052037;28;42960;-79
2023/01/03 10:45:54;;;;;;;;;;;17.70;57.80;;;;;;5037481;28;43140;-80
2023/01/03 10:48:20;;;;;;;;;;;17.80;57.90;;;;;;5042711;28;43550;-79
2023/01/03 10:50:46;;;;;;;;;;;17.70;57.90;;;;;;5041136;28;43054;-78
2023/01/03 10:53:12;;;;;;;;;;;17.80;58.20;;;;;;5022676;28;43056;-85
2023/01/03 10:55:49;;;;;;;;;;;17.80;58.20;;;;;;5035485;28;43558;-86
2023/01/03 10:58:16;;;;;;;;;;;17.70;57.80;;;;;;5037283;28;43007;-74
2023/01/03 11:00:42;;;;;;;;;;;18.10;57.80;;;;;;5024470;28;42987;-76
2023/01/03 11:03:08;;;;;;;;;;;17.80;57.80;;;;;;5027034;28;43046;-76
2023/01/03 11:05:34;;;;;;;;;;;17.90;58.20;;;;;;5025497;28;43023;-76
2023/01/03 11:08:04;;;;;;;;;;;17.90;58.40;;;;;;5033823;28;43552;-74
2023/01/03 11:10:48;;;;;;;;;;;18.00;58.70;;;;;;5042667;28;42909;-74
2023/01/03 11:13:21;;;;;;;;;;;18.10;59.10;;;;;;5031001;28;43437;-74
2023/01/03 11:15:51;;;;;;;;;;;18.20;59.40;;;;;;5035563;28;43068;-76
2023/01/03 11:18:17;;;;;;;;;;;18.20;59.60;;;;;;5040141;28;43047;-73
2023/01/03 11:20:52;;;;;;;;;;;18.30;59.90;;;;;;5030087;28;43070;-73
2023/01/03 11:23:21;;;;;;;;;;;18.40;60.00;;;;;;5037297;28;43067;-75
2023/01/03 11:26:09;;;;;;;;;;;18.40;60.40;;;;;;5020532;28;43170;-77
2023/01/03 11:28:38;;;;;;;;;;;18.40;61.30;;;;;;5027736;28;43039;-81
2023/01/03 11:31:22;;;;;;;;;;;18.50;61.00;;;;;;5025697;28;43012;-80
2023/01/03 11:34:16;;;;;;;;;;;18.50;61.10;;;;;;5015997;28;43640;-75
2023/01/03 11:36:42;;;;;;;;;;;18.60;61.30;;;;;;5007153;28;42999;-75
2023/01/03 11:39:16;;;;;;;;;;;18.60;61.50;;;;;;5034800;28;42956;-79
2023/01/03 11:41:57;;;;;;;;;;;18.60;61.60;;;;;;5017426;28;43025;-75
2023/01/03 11:44:38;;;;;;;;;;;18.60;61.70;;;;;;5024535;28;43644;-77
2023/01/03 11:47:10;;;;;;;;;;;18.60;62.00;;;;;;5048560;28;43068;-74
2023/01/03 11:49:47;;;;;;;;;;;18.70;62.10;;;;;;5052726;28;42934;-79
2023/01/03 11:52:32;;;;;;;;;;;18.60;62.30;;;;;;5055312;28;42990;-80
2023/01/03 11:55:16;;;;;;;;;;;18.70;62.50;;;;;;5052518;28;43130;-79
2023/01/03 11:58:01;;;;;;;;;;;18.70;62.60;;;;;;5059060;28;43005;-79
2023/01/03 12:00:44;;;;;;;;;;;18.70;62.70;;;;;;5058460;28;43457;-87
2023/01/03 12:03:22;;;;;;;;;;;18.70;62.90;;;;;;5055286;28;43008;-81
2023/01/03 12:06:11;;;;;;;;;;;18.70;63.40;;;;;;5037006;28;43039;-80
2023/01/03 12:08:36;;;;;;;;;;;18.70;64.00;;;;;;5048534;28;43029;-79
2023/01/03 12:11:12;;;;;;;;;;;18.80;64.30;;;;;;5051774;28;43100;-77
2023/01/03 12:13:37;;;;;;;;;;;18.80;64.40;;;;;;5056900;28;42939;-79
2023/01/03 12:16:07;;;;;;;;;;;18.80;65.10;;;;;;5037748;28;44417;-77
2023/01/03 12:18:39;;;;;;;;;;;18.80;66.20;;;;;;5055359;28;43084;-81
2023/01/03 12:21:09;;;;;;;;;;;18.80;66.10;;;;;;5052159;28;43044;-79
2023/01/03 12:23:50;;;;;;;;;;;18.80;66.60;;;;;;5061563;28;43002;-78
2023/01/03 12:29:10;;;;;;;;;;;18.90;67.20;;;;;;5039776;28;43013;-80
2023/01/03 12:32:11;;;;;;;;;;;18.90;68.40;;;;;;5045753;28;43365;-79
2023/01/03 12:35:00;;;;;;;;;;;19.10;68.10;;;;;;4984492;28;42969;-80
2023/01/03 12:37:28;;;;;;;;;;;18.90;69.30;;;;;;4993288;28;43094;-79
2023/01/03 12:39:55;;;;;;;;;;;18.90;69.90;;;;;;5059704;28;43081;-78
2023/01/03 12:42:39;;;;;;;;;;;18.90;70.00;;;;;;5050019;28;43476;-79
2023/01/03 12:45:10;;;;;;;;;;;19.00;70.20;;;;;;5053069;28;43885;-79
2023/01/03 12:47:41;;;;;;;;;;;19.00;70.30;;;;;;5060220;28;43537;-77
2023/01/03 12:50:17;;;;;;;;;;;19.00;70.20;;;;;;5054766;28;43084;-80
2023/01/03 12:52:44;;;;;;;;;;;19.00;70.60;;;;;;5059940;28;43640;-80
2023/01/03 12:55:27;;;;;;;;;;;19.00;70.90;;;;;;5052847;28;42953;-80
2023/01/03 12:58:07;;;;;;;;;;;18.90;71.00;;;;;;5054748;28;44213;-81
2023/01/03 13:00:44;;;;;;;;;;;18.90;71.20;;;;;;5054138;28;43030;-80
2023/01/03 13:03:18;;;;;;;;;;;18.90;71.40;;;;;;5060049;28;43234;-76
2023/01/03 13:05:55;;;;;;;;;;;19.10;71.80;;;;;;5056987;28;43447;-76
2023/01/03 13:08:39;;;;;;;;;;;18.90;72.10;;;;;;5055219;28;43658;-75
2023/01/03 13:11:25;;;;;;;;;;;18.90;72.10;;;;;;5048429;28;43088;-78
2023/01/03 13:13:52;;;;;;;;;;;18.90;72.30;;;;;;5056047;28;43061;-80
2023/01/03 13:16:36;;;;;;;;;;;18.90;72.50;;;;;;5062507;28;43153;-79
2023/01/03 13:19:22;;;;;;;;;;;18.90;72.90;;;;;;5059633;28;42989;-78
2023/01/03 13:21:53;;;;;;;;;;;18.90;72.90;;;;;;5004230;28;43123;-81
2023/01/03 13:24:37;;;;;;;;;;;18.90;73.10;;;;;;5056344;28;43084;-80
2023/01/03 13:27:18;;;;;;;;;;;18.90;73.20;;;;;;5056524;28;42931;-74
2023/01/03 13:29:49;;;;;;;;;;;18.90;73.30;;;;;;5026330;28;44571;-75
2023/01/03 13:32:21;;;;;;;;;;;18.90;73.40;;;;;;5049444;28;43061;-74
2023/01/03 13:34:53;;;;;;;;;;;18.90;73.50;;;;;;5055347;28;43066;-74
2023/01/03 13:37:22;;;;;;;;;;;18.90;73.70;;;;;;5054071;28;42945;-74
2023/01/03 13:39:51;;;;;;;;;;;18.90;73.60;;;;;;5059943;28;43077;-74
2023/01/03 13:42:21;;;;;;;;;;;18.90;73.60;;;;;;5055602;28;43070;-74
2023/01/03 13:44:46;;;;;;;;;;;18.90;73.70;;;;;;5049434;28;42867;-74
2023/01/03 13:47:25;;;;;;;;;;;18.90;73.70;;;;;;5031565;28;43044;-74
2023/01/03 13:49:51;;;;;;;;;;;18.90;73.60;;;;;;5046734;28;43091;-74
2023/01/03 13:52:37;;;;;;;;;;;18.90;73.50;;;;;;5051042;28;42924;-72
2023/01/03 13:55:03;;;;;;;;;;;18.90;73.40;;;;;;5050411;28;44084;-74
2023/01/03 13:57:30;;;;;;;;;;;18.90;73.30;;;;;;5054818;28;42863;-74
2023/01/03 13:59:57;;;;;;;;;;;18.90;73.20;;;;;;5057988;28;43484;-74
2023/01/03 14:02:26;;;;;;;;;;;18.90;72.90;;;;;;5041440;28;43057;-74
2023/01/03 14:05:09;;;;;;;;;;;18.90;72.80;;;;;;5039756;28;43871;-73
2023/01/03 14:08:11;;;;;;;;;;;18.90;73.10;;;;;;5039688;28;43148;-73
2023/01/03 14:10:46;;;;;;;;;;;18.90;72.40;;;;;;4980387;28;42937;-72
2023/01/03 14:13:30;;;;;;;;;;;18.90;72.10;;;;;;5020021;28;43120;-74
2023/01/03 14:16:19;;;;;;;;;;;18.80;71.90;;;;;;5040298;28;43100;-79
2023/01/03 14:18:47;;;;;;;;;;;18.90;71.90;;;;;;4988667;28;43059;-74
2023/01/03 14:21:19;;;;;;;;;;;18.80;71.90;;;;;;5052179;28;43855;-77
2023/01/03 14:23:45;;;;;;;;;;;18.80;71.80;;;;;;5059822;28;43101;-74
2023/01/03 14:26:12;;;;;;;;;;;18.80;71.80;;;;;;5059027;28;42931;-75
2023/01/03 14:28:38;;;;;;;;;;;18.80;71.80;;;;;;5062446;28;43021;-74
2023/01/03 14:31:05;;;;;;;;;;;18.80;71.80;;;;;;5040599;28;44356;-75
2023/01/03 14:33:47;;;;;;;;;;;18.80;71.70;;;;;;5062380;28;42992;-79
2023/01/03 14:36:14;;;;;;;;;;;18.80;70.80;;;;;;5050058;28;43612;-74
2023/01/03 14:38:50;;;;;;;;;;;18.90;63.60;;;;;;5033160;28;43534;-77
2023/01/03 14:41:51;;;;;;;;;;;18.90;62.90;;;;;;5054166;28;43411;-76
2023/01/03 14:44:17;;;;;;;;;;;18.90;60.50;;;;;;4961196;28;43657;-76
2023/01/03 14:46:52;;;;;;;;;;;18.80;59.00;;;;;;4961214;28;42969;-76
2023/01/03 14:49:22;;;;;;;;;;;18.80;58.90;;;;;;4961107;28;43232;-77
2023/01/03 14:51:48;;;;;;;;;;;18.70;59.00;;;;;;4962800;28;43006;-79
2023/01/03 14:54:15;;;;;;;;;;;18.60;59.30;;;;;;4962187;28;42988;-80
2023/01/03 14:56:43;;;;;;;;;;;18.60;58.90;;;;;;4962391;28;43421;-80
2023/01/03 14:59:09;;;;;;;;;;;18.60;58.40;;;;;;4963042;28;43396;-78
2023/01/03 15:01:35;;;;;;;;;;;18.50;58.00;;;;;;4963371;28;43054;-78
2023/01/03 15:04:00;;;;;;;;;;;18.50;58.20;;;;;;4964092;28;43061;-80
2023/01/03 15:06:27;;;;;;;;;;;18.50;57.90;;;;;;4963841;28;43426;-81
2023/01/03 15:08:54;;;;;;;;;;;18.40;57.70;;;;;;4964030;28;42931;-80
2023/01/03 15:11:55;;;;;;;;;;;18.40;57.80;;;;;;4962532;28;43001;-81
2023/01/03 15:14:39;;;;;;;;;;;18.40;58.00;;;;;;4963720;28;43024;-81
2023/01/03 15:17:10;;;;;;;;;;;18.30;57.90;;;;;;4962779;28;43694;-81
2023/01/03 15:19:37;;;;;;;;;;;18.30;57.90;;;;;;5045568;28;43051;-78
2023/01/03 15:22:14;;;;;;;;;;;18.30;57.90;;;;;;5040394;28;44590;-80
2023/01/03 15:24:41;;;;;;;;;;;18.20;58.00;;;;;;5027150;28;42905;-79
2023/01/03 15:27:36;;;;;;;;;;;18.20;57.60;;;;;;5045366;28;43517;-78
2023/01/03 15:30:11;;;;;;;;;;;18.20;57.70;;;;;;5036934;28;42891;-79
2023/01/03 15:32:51;;;;;;;;;;;18.20;57.80;;;;;;5048630;28;42961;-78